Skip to main content.
 TIME   TEMPERATURE   WINDSPEED   DIRECTION   HUMIDITY   BAROMETER   RAINFALL 
3:31 15.0°C (59.0°F) 7.4 kmh (4.6 mph) NNE 68% 1009.0hPa (29.80 inHg) 5.0mm (0.20 in.)
2:31 15.2°C (59.4 °F) 5.6 kmh (3.5 mph) W 71% 1010.0hPa (29.83 inHg) 5.0mm (0.20 in.)
1:31 15.2°C (59.4 °F) 13.0 kmh (8.1 mph) N 73% 1010.0hPa (29.83 inHg) 5.0mm (0.20 in.)
12:31 15.2°C (59.4 °F) 14.8 kmh (9.2 mph) NNE 77% 1010.0hPa (29.83 inHg) 5.0mm (0.20 in.)
11:31 14.9°C (58.8 °F) 7.4 kmh (4.6 mph) N 80% 1011.0hPa (29.85 inHg) 5.0mm (0.20 in.)
10:31 13.0°C (55.4 °F) 0.0 kmh (0.0 mph) N 82% 1012.0hPa (29.88 inHg) 5.0mm (0.20 in.)
9:31 12.6°C (54.7 °F) 0.0 kmh (0.0 mph) NNW 83% 1012.0hPa (29.88 inHg) 5.0mm (0.20 in.)
8:31 12.3°C (54.1 °F) 0.0 kmh (0.0 mph) NNW 84% 1011.0hPa (29.85 inHg) 5.0mm (0.20 in.)
7:25 11.8°C (53.2 °F) 0.0 kmh (0.0 mph) NNW 84% 1011.0hPa (29.85 inHg) 5.0mm (0.20 in.)
6:25 12.0°C (53.6 °F) 0.0 kmh (0.0 mph) NNW 85% 1011.0hPa (29.85 inHg) 5.0mm (0.20 in.)
5:25 12.0°C (53.6 °F) 0.0 kmh (0.0 mph) N 86% 1011.0hPa (29.85 inHg) 5.0mm (0.20 in.)
4:25 11.9°C (53.4 °F) 0.0 kmh (0.0 mph) NNW 86% 1011.0hPa (29.85 inHg) 5.0mm (0.20 in.)
3:25 12.1°C (53.8 °F) 0.0 kmh (0.0 mph) NNW 87% 1012.0hPa (29.88 inHg) 5.0mm (0.20 in.)
2:25 12.4°C (54.3 °F) 0.0 kmh (0.0 mph) NNW 87% 1012.0hPa (29.88 inHg) 5.0mm (0.20 in.)
1:25 12.4°C (54.3 °F) 0.0 kmh (0.0 mph) NNW 88% 1012.0hPa (29.88 inHg) 5.0mm (0.20 in.)
12:25 12.5°C (54.5 °F) 0.0 kmh (0.0 mph) NW 88% 1013.0hPa (29.91 inHg) 5.0mm (0.20 in.)
11:25 12.6°C (54.7 °F) 0.0 kmh (0.0 mph) NNW 88% 1013.0hPa (29.91 inHg) 5.0mm (0.20 in.)
10:25 12.9°C (55.2 °F) 0.0 kmh (0.0 mph) NNW 87% 1013.0hPa (29.91 inHg) 5.0mm (0.20 in.)
9:25 13.0°C (55.4 °F) 0.0 kmh (0.0 mph) NW 87% 1012.0hPa (29.88 inHg) 5.0mm (0.20 in.)
8:25 13.3°C (55.9 °F) 0.0 kmh (0.0 mph) NW 86% 1012.0hPa (29.88 inHg) 5.0mm (0.20 in.)
7:25 13.7°C (56.7 °F) 0.0 kmh (0.0 mph) NNW 86% 1012.0hPa (29.88 inHg) 5.0mm (0.20 in.)
6:25 14.1°C (57.4 °F) 0.0 kmh (0.0 mph) NNW 85% 1012.0hPa (29.88 inHg) 3.0mm (0.12 in.)
5:25 14.4°C (57.9 °F) 18.5 kmh (11.5 mph) WNW 85% 1012.0hPa (29.88 inHg) 1.0mm (0.04 in.)
4:25 14.4°C (57.9 °F) 24.1 kmh (15.0 mph) WNW 84% 1012.0hPa (29.88 inHg) 0.0mm (0.00 in.)